Time,TemperatureF,DewpointF,PressureIn,WindDirection,WindDirectionDegrees,WindSpeedMPH,WindSpeedGustMPH,Humidity,HourlyPrecipIn,Conditions,Clouds,dailyrainin,SoftwareType,DateUTC
2013-01-04 05:00:00,41.4,38.4,29.96,South,180,0.0,0.0,89,0.00,,,0.00,WUHU216HW,2013-01-04 13:00:00,
2013-01-04 05:05:00,41.4,38.4,29.96,South,180,0.0,0.0,89,0.00,,,0.00,WUHU216HW,2013-01-04 13:05:00,
2013-01-04 05:10:00,41.4,38.4,29.96,South,180,0.0,0.0,89,0.00,,,0.00,WUHU216HW,2013-01-04 13:10:00,
2013-01-04 05:15:00,41.2,38.3,29.96,SW,225,0.0,0.2,89,0.00,,,0.00,WUHU216HW,2013-01-04 13:15:00,
2013-01-04 05:20:00,41.4,38.7,29.96,SW,225,0.0,0.2,90,0.00,,,0.00,WUHU216HW,2013-01-04 13:20:00,
2013-01-04 05:25:00,41.4,38.7,29.96,SW,225,0.0,0.0,90,0.00,,,0.00,WUHU216HW,2013-01-04 13:25:00,
2013-01-04 05:30:00,41.4,38.7,29.97,SW,225,0.0,0.0,90,0.00,,,0.00,WUHU216HW,2013-01-04 13:30:00,
2013-01-04 05:35:00,41.4,38.7,29.97,SW,225,0.0,0.0,90,0.00,,,0.00,WUHU216HW,2013-01-04 13:35:00,
2013-01-04 05:40:00,41.2,38.5,29.97,SW,225,0.0,0.0,90,0.00,,,0.00,WUHU216HW,2013-01-04 13:40:00,
2013-01-04 05:45:00,41.0,38.3,29.97,SW,225,0.0,0.0,90,0.00,,,0.00,WUHU216HW,2013-01-04 13:45:00,
2013-01-04 05:50:00,40.7,38.0,29.97,SW,225,0.0,0.0,90,0.00,,,0.00,WUHU216HW,2013-01-04 13:50:00,
2013-01-04 05:55:00,40.5,37.8,29.97,SW,225,0.0,0.0,90,0.00,,,0.00,WUHU216HW,2013-01-04 13:55:00,
2013-01-04 06:00:00,40.3,37.6,29.97,SW,225,0.0,0.0,90,0.00,,,0.00,WUHU216HW,2013-01-04 14:00:00,
2013-01-04 06:05:00,40.3,37.6,29.97,SW,225,0.0,0.0,90,0.00,,,0.00,WUHU216HW,2013-01-04 14:05:00,
2013-01-04 06:10:00,40.3,37.6,29.97,SW,225,0.0,0.0,90,0.00,,,0.00,WUHU216HW,2013-01-04 14:10:00,
2013-01-04 06:15:00,40.1,37.4,29.97,SW,225,0.0,0.0,90,0.00,,,0.00,WUHU216HW,2013-01-04 14:15:00,
2013-01-04 06:20:00,40.0,37.3,29.97,SW,225,0.0,0.0,90,0.00,,,0.00,WUHU216HW,2013-01-04 14:20:00,
2013-01-04 06:25:00,40.0,37.3,29.98,WSW,248,0.4,0.4,90,0.00,,,0.00,WUHU216HW,2013-01-04 14:25:00,
2013-01-04 06:30:00,40.7,38.3,29.97,NNW,338,0.4,0.4,91,0.00,,,0.00,WUHU216HW,2013-01-04 14:30:00,
2013-01-04 06:35:00,41.0,38.9,29.97,NNW,338,0.0,1.1,92,0.00,,,0.00,WUHU216HW,2013-01-04 14:35:00,
2013-01-04 06:40:00,41.2,38.8,29.97,NNW,338,0.0,1.1,91,0.00,,,0.00,WUHU216HW,2013-01-04 14:40:00,
2013-01-04 06:45:00,41.0,38.6,29.97,NNW,338,0.0,0.0,91,0.00,,,0.00,WUHU216HW,2013-01-04 14:45:00,
2013-01-04 06:50:00,40.7,38.3,29.97,NNW,338,0.0,0.0,91,0.00,,,0.00,WUHU216HW,2013-01-04 14:50:00,
2013-01-04 06:55:00,40.7,38.3,29.97,NNW,338,0.0,0.0,91,0.00,,,0.00,WUHU216HW,2013-01-04 14:55:00,
2013-01-04 07:00:00,40.3,37.9,29.97,NNW,338,0.0,0.0,91,0.00,,,0.00,WUHU216HW,2013-01-04 15:00:00,
2013-01-04 07:05:00,40.3,37.9,29.97,NNW,338,0.0,0.0,91,0.00,,,0.00,WUHU216HW,2013-01-04 15:05:00,
2013-01-04 07:10:00,40.3,37.9,29.97,NNW,338,0.0,0.0,91,0.00,,,0.00,WUHU216HW,2013-01-04 15:10:00,
2013-01-04 07:15:00,40.1,37.7,29.97,NNW,338,0.0,0.0,91,0.00,,,0.00,WUHU216HW,2013-01-04 15:15:00,
2013-01-04 07:20:00,40.1,37.7,29.97,NNW,338,0.0,0.0,91,0.00,,,0.00,WUHU216HW,2013-01-04 15:20:00,
2013-01-04 07:25:00,40.0,37.5,29.97,NNW,338,0.0,0.0,91,0.00,,,0.00,WUHU216HW,2013-01-04 15:25:00,
2013-01-04 07:30:00,40.0,37.5,29.96,NNW,338,0.0,0.0,91,0.00,,,0.00,WUHU216HW,2013-01-04 15:30:00,
2013-01-04 07:35:00,39.8,37.4,29.96,NNW,338,0.0,0.0,91,0.00,,,0.00,WUHU216HW,2013-01-04 15:35:00,
2013-01-04 07:40:00,39.8,37.4,29.96,NNW,338,0.0,0.0,91,0.00,,,0.00,WUHU216HW,2013-01-04 15:40:00,
2013-01-04 07:45:00,39.6,37.2,29.96,SSW,203,0.2,0.9,91,0.00,,,0.00,WUHU216HW,2013-01-04 15:45:00,
2013-01-04 07:50:00,39.4,37.0,29.96,SSW,203,0.0,0.9,91,0.00,,,0.00,WUHU216HW,2013-01-04 15:50:00,
2013-01-04 07:55:00,39.2,36.8,29.96,SSW,203,0.0,0.0,91,0.00,,,0.00,WUHU216HW,2013-01-04 15:55:00,
2013-01-04 08:00:00,39.2,37.1,29.96,SSW,203,0.0,0.0,92,0.00,,,0.00,WUHU216HW,2013-01-04 16:00:00,
2013-01-04 08:05:00,39.4,37.3,29.97,SSW,203,0.0,0.0,92,0.00,,,0.00,WUHU216HW,2013-01-04 16:05:00,
2013-01-04 08:10:00,39.2,37.1,29.97,SSW,203,0.0,0.0,92,0.00,,,0.00,WUHU216HW,2013-01-04 16:10:00,
2013-01-04 08:15:00,39.2,37.1,29.97,SSW,203,0.0,0.0,92,0.00,,,0.00,WUHU216HW,2013-01-04 16:15:00,
2013-01-04 08:20:00,39.2,37.1,29.98,SSW,203,0.0,0.0,92,0.00,,,0.00,WUHU216HW,2013-01-04 16:20:00,
2013-01-04 08:25:00,39.2,37.1,29.98,SSW,203,0.0,0.0,92,0.00,,,0.00,WUHU216HW,2013-01-04 16:25:00,
2013-01-04 08:30:00,39.6,37.7,29.98,SSW,203,0.0,0.0,93,0.00,,,0.00,WUHU216HW,2013-01-04 16:30:00,
2013-01-04 08:35:00,39.8,37.9,29.98,SSW,203,0.0,0.0,93,0.00,,,0.00,WUHU216HW,2013-01-04 16:35:00,
2013-01-04 08:40:00,40.0,38.1,29.98,SSW,203,0.0,0.0,93,0.00,,,0.00,WUHU216HW,2013-01-04 16:40:00,
2013-01-04 08:45:00,40.0,38.1,29.98,SSW,203,0.0,0.0,93,0.00,,,0.00,WUHU216HW,2013-01-04 16:45:00,
2013-01-04 08:50:00,40.1,38.3,29.98,SSW,203,0.0,0.0,93,0.00,,,0.00,WUHU216HW,2013-01-04 16:50:00,
2013-01-04 08:55:00,40.3,38.4,29.98,SSW,203,0.0,0.0,93,0.00,,,0.00,WUHU216HW,2013-01-04 16:55:00,
2013-01-04 09:00:00,40.7,38.8,29.98,SSW,203,0.0,0.0,93,0.00,,,0.00,WUHU216HW,2013-01-04 17:00:00,
2013-01-04 09:05:00,40.9,39.0,29.98,SSW,203,0.0,0.0,93,0.00,,,0.00,WUHU216HW,2013-01-04 17:05:00,
2013-01-04 09:10:00,41.0,39.2,29.98,SSW,203,0.0,0.0,93,0.00,,,0.00,WUHU216HW,2013-01-04 17:10:00,
2013-01-04 09:15:00,41.0,39.2,29.99,South,180,0.0,0.0,93,0.00,,,0.00,WUHU216HW,2013-01-04 17:15:00,
2013-01-04 09:20:00,41.2,39.1,29.99,SSW,203,0.0,0.0,92,0.00,,,0.00,WUHU216HW,2013-01-04 17:20:00,
2013-01-04 09:25:00,41.2,39.3,29.99,SSW,203,0.0,0.0,93,0.00,,,0.00,WUHU216HW,2013-01-04 17:25:00,
2013-01-04 09:30:00,41.8,39.9,29.99,SSW,203,0.0,0.0,93,0.00,,,0.00,WUHU216HW,2013-01-04 17:30:00,
2013-01-04 09:35:00,42.1,40.2,29.98,SSW,203,0.0,0.0,93,0.00,,,0.00,WUHU216HW,2013-01-04 17:35:00,
2013-01-04 09:40:00,42.7,40.8,29.99,SSW,203,0.0,0.0,93,0.00,,,0.00,WUHU216HW,2013-01-04 17:40:00,
2013-01-04 09:45:00,43.0,41.1,29.99,South,180,0.0,0.0,93,0.00,,,0.00,WUHU216HW,2013-01-04 17:45:00,
2013-01-04 09:50:00,43.6,41.7,29.99,South,180,0.0,0.0,93,0.00,,,0.00,WUHU216HW,2013-01-04 17:50:00,
2013-01-04 09:55:00,44.3,42.4,29.99,South,180,0.0,0.0,93,0.00,,,0.00,WUHU216HW,2013-01-04 17:55:00,
2013-01-04 10:00:00,44.5,42.6,29.99,East,90,0.0,0.9,93,0.00,,,0.00,WUHU216HW,2013-01-04 18:00:00,
2013-01-04 10:05:00,45.0,43.1,29.99,NNE,23,0.0,0.9,93,0.00,,,0.00,WUHU216HW,2013-01-04 18:05:00,
2013-01-04 10:10:00,45.2,43.3,29.99,East,90,0.2,0.7,93,0.00,,,0.00,WUHU216HW,2013-01-04 18:10:00,
2013-01-04 10:15:00,45.5,43.4,29.99,East,90,0.0,0.7,92,0.00,,,0.00,WUHU216HW,2013-01-04 18:15:00,
2013-01-04 10:20:00,46.1,44.2,29.99,NNE,23,0.0,0.9,93,0.00,,,0.00,WUHU216HW,2013-01-04 18:20:00,
2013-01-04 10:25:00,46.1,43.9,29.99,NNE,23,0.0,0.9,92,0.00,,,0.00,WUHU216HW,2013-01-04 18:25:00,
2013-01-04 10:30:00,46.1,43.9,29.99,NNE,23,0.9,0.9,92,0.00,,,0.00,WUHU216HW,2013-01-04 18:30:00,
2013-01-04 10:35:00,46.1,43.7,29.99,NNE,23,0.0,0.9,91,0.00,,,0.00,WUHU216HW,2013-01-04 18:35:00,
2013-01-04 10:40:00,45.9,43.5,29.99,NW,315,0.0,0.9,91,0.00,,,0.00,WUHU216HW,2013-01-04 18:40:00,
2013-01-04 10:45:00,46.1,43.7,29.99,NW,315,0.0,0.7,91,0.00,,,0.00,WUHU216HW,2013-01-04 18:45:00,
2013-01-04 10:50:00,46.1,43.7,29.98,NNW,338,0.0,0.0,91,0.00,,,0.00,WUHU216HW,2013-01-04 18:50:00,
2013-01-04 10:55:00,46.6,44.2,29.98,NNW,338,0.0,0.4,91,0.00,,,0.00,WUHU216HW,2013-01-04 18:55:00,
2013-01-04 11:00:00,47.0,44.6,29.98,NNW,338,0.0,0.4,91,0.00,,,0.00,WUHU216HW,2013-01-04 19:00:00,
2013-01-04 11:05:00,47.2,44.7,29.97,SW,225,0.4,1.1,91,0.00,,,0.00,WUHU216HW,2013-01-04 19:05:00,
2013-01-04 11:10:00,47.5,44.8,29.97,SW,225,0.0,1.1,90,0.00,,,0.00,WUHU216HW,2013-01-04 19:10:00,
2013-01-04 11:15:00,47.7,45.0,29.96,SW,225,0.2,0.4,90,0.00,,,0.00,WUHU216HW,2013-01-04 19:15:00,
2013-01-04 11:20:00,48.1,45.4,29.96,SW,225,0.7,0.7,90,0.00,,,0.00,WUHU216HW,2013-01-04 19:20:00,
2013-01-04 11:25:00,48.4,45.4,29.96,ESE,113,0.7,0.7,89,0.00,,,0.00,WUHU216HW,2013-01-04 19:25:00,
2013-01-04 11:30:00,48.8,45.7,29.96,SW,225,0.4,2.0,89,0.00,,,0.00,WUHU216HW,2013-01-04 19:30:00,
2013-01-04 11:35:00,49.1,45.7,29.95,SW,225,0.0,2.0,88,0.00,,,0.00,WUHU216HW,2013-01-04 19:35:00,
2013-01-04 11:40:00,49.1,45.7,29.95,ENE,68,0.0,0.9,88,0.00,,,0.00,WUHU216HW,2013-01-04 19:40:00,
2013-01-04 11:45:00,49.3,45.9,29.95,ENE,68,0.9,0.9,88,0.00,,,0.00,WUHU216HW,2013-01-04 19:45:00,
2013-01-04 11:50:00,49.9,46.1,29.95,SE,135,0.0,0.9,87,0.00,,,0.00,WUHU216HW,2013-01-04 19:50:00,
2013-01-04 11:55:00,50.0,46.3,29.94,SE,135,0.0,0.9,87,0.00,,,0.00,WUHU216HW,2013-01-04 19:55:00,
2013-01-04 12:00:00,50.0,46.3,29.94,NNE,23,0.4,0.4,87,0.00,,,0.00,WUHU216HW,2013-01-04 20:00:00,
2013-01-04 12:05:00,50.2,46.5,29.94,NNE,23,0.4,0.4,87,0.00,,,0.00,WUHU216HW,2013-01-04 20:05:00,
2013-01-04 12:10:00,50.2,46.5,29.93,West,270,0.0,0.4,87,0.00,,,0.00,WUHU216HW,2013-01-04 20:10:00,
2013-01-04 12:15:00,50.4,46.3,29.93,NNW,338,0.0,0.4,86,0.00,,,0.00,WUHU216HW,2013-01-04 20:15:00,
2013-01-04 12:20:00,50.4,46.3,29.93,NNE,23,0.0,0.4,86,0.00,,,0.00,WUHU216HW,2013-01-04 20:20:00,
2013-01-04 12:25:00,50.6,46.4,29.93,NNE,23,0.2,0.4,86,0.00,,,0.00,WUHU216HW,2013-01-04 20:25:00,
2013-01-04 12:30:00,50.6,46.8,29.92,NNE,23,0.0,0.4,87,0.00,,,0.00,WUHU216HW,2013-01-04 20:30:00,
2013-01-04 12:35:00,50.6,46.8,29.92,NNE,23,0.0,0.4,87,0.00,,,0.00,WUHU216HW,2013-01-04 20:35:00,
2013-01-04 12:40:00,50.4,46.3,29.92,NNW,338,0.0,0.0,86,0.00,,,0.00,WUHU216HW,2013-01-04 20:40:00,
2013-01-04 12:45:00,50.0,45.9,29.92,WSW,248,0.4,0.4,86,0.00,,,0.00,WUHU216HW,2013-01-04 20:45:00,
2013-01-04 12:50:00,50.0,45.9,29.91,West,270,0.2,0.4,86,0.00,,,0.00,WUHU216HW,2013-01-04 20:50:00,
2013-01-04 12:54:00,49.5,45.5,29.91,West,270,0.0,0.4,86,0.00,,,0.00,WUHU216HW,2013-01-04 20:54:00,
2013-01-04 17:21:00,49.5,45.5,29.91,West,270,0.0,0.0,86,0.00,,,0.00,WUHU216HW,2013-01-05 01:21:00,
2013-01-04 17:26:00,49.5,45.5,29.91,West,270,0.0,0.0,86,0.00,,,0.00,WUHU216HW,2013-01-05 01:26:00,
2013-01-04 18:00:00,45.0,43.7,29.86,ENE,68,0.0,0.0,95,0.00,,,0.00,WUHU216HW,2013-01-05 02:00:00,
2013-01-04 18:05:00,45.7,44.4,29.86,West,270,0.4,0.4,95,0.00,,,0.00,WUHU216HW,2013-01-05 02:05:00,
2013-01-04 18:10:00,46.1,44.5,29.86,West,270,0.0,0.4,94,0.00,,,0.00,WUHU216HW,2013-01-05 02:10:00,
2013-01-04 18:15:00,46.4,44.8,29.86,NNW,338,0.0,0.4,94,0.00,,,0.00,WUHU216HW,2013-01-05 02:15:00,
2013-01-04 18:20:00,47.0,45.6,29.86,North,0,0.0,0.2,95,0.00,,,0.00,WUHU216HW,2013-01-05 02:20:00,
2013-01-04 18:25:00,47.2,45.5,29.86,North,0,0.0,0.2,94,0.00,,,0.00,WUHU216HW,2013-01-05 02:25:00,
2013-01-04 18:30:00,47.3,45.7,29.86,North,0,0.0,0.0,94,0.00,,,0.00,WUHU216HW,2013-01-05 02:30:00,
2013-01-04 18:35:00,47.3,45.7,29.86,North,0,0.0,0.0,94,0.00,,,0.00,WUHU216HW,2013-01-05 02:35:00,
2013-01-04 18:40:00,47.5,45.4,29.85,North,0,0.0,0.0,92,0.00,,,0.00,WUHU216HW,2013-01-05 02:40:00,
2013-01-04 18:45:00,47.5,45.4,29.86,North,0,0.0,0.0,92,0.00,,,0.00,WUHU216HW,2013-01-05 02:45:00,
2013-01-04 18:50:00,47.2,44.7,29.86,North,0,0.0,0.0,91,0.00,,,0.00,WUHU216HW,2013-01-05 02:50:00,
2013-01-04 18:55:00,46.8,44.4,29.86,WSW,248,0.2,0.2,91,0.00,,,0.00,WUHU216HW,2013-01-05 02:55:00,
2013-01-04 19:00:00,46.8,44.4,29.86,WSW,248,0.0,0.2,91,0.00,,,0.00,WUHU216HW,2013-01-05 03:00:00,
2013-01-04 19:05:00,46.4,44.3,29.86,WSW,248,0.0,0.2,92,0.00,,,0.00,WUHU216HW,2013-01-05 03:05:00,
2013-01-04 19:10:00,47.2,45.0,29.85,NNW,338,0.0,0.0,92,0.00,,,0.00,WUHU216HW,2013-01-05 03:10:00,
2013-01-04 19:15:00,47.2,44.7,29.85,NNW,338,0.0,0.0,91,0.00,,,0.00,WUHU216HW,2013-01-05 03:15:00,
2013-01-04 19:20:00,46.8,44.4,29.85,West,270,0.2,0.2,91,0.00,,,0.00,WUHU216HW,2013-01-05 03:20:00,
2013-01-04 19:25:00,46.6,44.2,29.85,NNE,23,0.0,0.2,91,0.00,,,0.00,WUHU216HW,2013-01-05 03:25:00,
2013-01-04 19:30:00,46.6,44.2,29.85,ENE,68,0.4,0.4,91,0.00,,,0.00,WUHU216HW,2013-01-05 03:30:00,
2013-01-04 19:35:00,46.3,43.8,29.85,ENE,68,0.0,0.4,91,0.00,,,0.00,WUHU216HW,2013-01-05 03:35:00,
2013-01-04 19:40:00,46.4,44.0,29.85,ENE,68,0.0,0.4,91,0.00,,,0.00,WUHU216HW,2013-01-05 03:40:00,
2013-01-04 19:45:00,46.4,44.0,29.85,WNW,293,0.0,0.0,91,0.00,,,0.00,WUHU216HW,2013-01-05 03:45:00,
2013-01-04 19:50:00,46.8,44.6,29.85,WNW,293,0.0,0.0,92,0.00,,,0.00,WUHU216HW,2013-01-05 03:50:00,
2013-01-04 19:55:00,47.0,44.6,29.85,WNW,293,0.0,0.0,91,0.00,,,0.00,WUHU216HW,2013-01-05 03:55:00,
2013-01-04 20:00:00,47.2,44.7,29.86,WNW,293,0.0,0.0,91,0.00,,,0.00,WUHU216HW,2013-01-05 04:00:00,
2013-01-04 20:05:00,47.0,44.6,29.85,West,270,0.0,0.2,91,0.00,,,0.00,WUHU216HW,2013-01-05 04:05:00,
2013-01-04 20:10:00,47.2,44.7,29.85,West,270,0.0,0.2,91,0.00,,,0.00,WUHU216HW,2013-01-05 04:10:00,
2013-01-04 20:15:00,47.2,44.5,29.85,West,270,0.0,0.0,90,0.00,,,0.00,WUHU216HW,2013-01-05 04:15:00,
2013-01-04 20:20:00,47.0,44.6,29.85,West,270,0.0,0.0,91,0.00,,,0.00,WUHU216HW,2013-01-05 04:20:00,
2013-01-04 20:25:00,47.2,44.7,29.85,West,270,0.0,0.0,91,0.00,,,0.00,WUHU216HW,2013-01-05 04:25:00,
2013-01-04 20:30:00,47.0,44.3,29.85,West,270,0.0,0.0,90,0.00,,,0.00,WUHU216HW,2013-01-05 04:30:00,
2013-01-04 20:35:00,46.8,44.4,29.85,West,270,0.0,0.0,91,0.00,,,0.00,WUHU216HW,2013-01-05 04:35:00,
2013-01-04 20:40:00,47.2,44.7,29.86,West,270,0.0,0.0,91,0.00,,,0.00,WUHU216HW,2013-01-05 04:40:00,
2013-01-04 20:45:00,47.2,44.5,29.85,West,270,0.0,0.0,90,0.00,,,0.00,WUHU216HW,2013-01-05 04:45:00,
2013-01-04 20:50:00,47.2,44.5,29.85,West,270,0.0,0.0,90,0.00,,,0.00,WUHU216HW,2013-01-05 04:50:00,
2013-01-04 20:55:00,47.0,44.3,29.85,West,270,0.0,0.0,90,0.00,,,0.00,WUHU216HW,2013-01-05 04:55:00,
2013-01-04 21:00:00,47.0,44.3,29.85,West,270,0.0,0.0,90,0.00,,,0.00,WUHU216HW,2013-01-05 05:00:00,
2013-01-04 21:05:00,47.2,44.5,29.85,West,270,0.0,0.0,90,0.00,,,0.00,WUHU216HW,2013-01-05 05:05:00,
2013-01-04 21:10:00,47.2,44.5,29.85,West,270,0.0,0.0,90,0.00,,,0.00,WUHU216HW,2013-01-05 05:10:00,
2013-01-04 21:15:00,46.4,43.5,29.85,West,270,0.0,0.4,89,0.00,,,0.00,WUHU216HW,2013-01-05 05:15:00,
2013-01-04 21:20:00,45.7,42.8,29.85,West,270,0.0,0.4,89,0.00,,,0.00,WUHU216HW,2013-01-05 05:20:00,
2013-01-04 21:25:00,45.2,42.5,29.86,West,270,0.0,0.0,90,0.00,,,0.00,WUHU216HW,2013-01-05 05:25:00,
2013-01-04 21:30:00,44.8,42.1,29.85,West,270,0.0,0.0,90,0.00,,,0.00,WUHU216HW,2013-01-05 05:30:00,
2013-01-04 21:35:00,44.3,41.6,29.85,West,270,0.0,0.0,90,0.00,,,0.00,WUHU216HW,2013-01-05 05:35:00,
2013-01-04 21:40:00,44.3,41.6,29.85,West,270,0.0,0.0,90,0.00,,,0.00,WUHU216HW,2013-01-05 05:40:00,
2013-01-04 21:45:00,44.3,41.6,29.86,SSW,203,0.0,0.4,90,0.00,,,0.00,WUHU216HW,2013-01-05 05:45:00,
2013-01-04 21:50:00,44.3,41.6,29.86,SSW,203,0.0,0.4,90,0.00,,,0.00,WUHU216HW,2013-01-05 05:50:00,
2013-01-04 21:55:00,44.3,41.6,29.86,SSW,203,0.0,0.0,90,0.00,,,0.00,WUHU216HW,2013-01-05 05:55:00,
2013-01-04 22:00:00,44.3,41.6,29.85,SSW,203,0.0,0.0,90,0.00,,,0.00,WUHU216HW,2013-01-05 06:00:00,
2013-01-04 22:05:00,44.3,41.6,29.86,SSW,203,0.0,0.0,90,0.00,,,0.00,WUHU216HW,2013-01-05 06:05:00,
2013-01-04 22:10:00,44.3,41.6,29.86,SSW,203,0.0,0.0,90,0.00,,,0.00,WUHU216HW,2013-01-05 06:10:00,
2013-01-04 22:15:00,44.3,41.6,29.86,SSW,203,0.0,0.0,90,0.00,,,0.00,WUHU216HW,2013-01-05 06:15:00,
2013-01-04 22:20:00,44.1,41.4,29.86,SSW,203,0.0,0.0,90,0.00,,,0.00,WUHU216HW,2013-01-05 06:20:00,
2013-01-04 22:25:00,44.1,41.4,29.86,SSW,203,0.0,0.0,90,0.00,,,0.00,WUHU216HW,2013-01-05 06:25:00,
2013-01-04 22:30:00,44.1,41.4,29.86,SSW,203,0.0,0.0,90,0.00,,,0.00,WUHU216HW,2013-01-05 06:30:00,
2013-01-04 22:35:00,44.1,41.4,29.86,East,90,0.0,0.0,90,0.00,,,0.00,WUHU216HW,2013-01-05 06:35:00,
2013-01-04 22:40:00,43.9,41.2,29.86,East,90,0.0,0.0,90,0.00,,,0.00,WUHU216HW,2013-01-05 06:40:00,
2013-01-04 22:45:00,43.9,41.2,29.86,East,90,0.0,0.0,90,0.00,,,0.00,WUHU216HW,2013-01-05 06:45:00,
2013-01-04 22:50:00,43.7,41.0,29.86,East,90,0.0,0.0,90,0.00,,,0.00,WUHU216HW,2013-01-05 06:50:00,
2013-01-04 22:55:00,43.6,40.6,29.86,East,90,0.0,0.0,89,0.00,,,0.00,WUHU216HW,2013-01-05 06:55:00,
2013-01-04 23:00:00,43.4,40.4,29.86,East,90,0.0,0.0,89,0.00,,,0.00,WUHU216HW,2013-01-05 07:00:00,
2013-01-04 23:05:00,43.4,40.4,29.86,East,90,0.0,0.0,89,0.00,,,0.00,WUHU216HW,2013-01-05 07:05:00,
2013-01-04 23:08:00,43.2,40.2,29.86,East,90,0.0,0.0,89,0.00,,,0.00,WUHU216HW,2013-01-05 07:08:00,